sensor_id;sensor_type;location;lat;lon;timestamp;P1;durP1;ratioP1;P2;durP2;ratioP2
71655;SDS011;59497;48.798;8.816;2023-03-03T00:00:14;58.47;;;21.70;;
71655;SDS011;59497;48.798;8.816;2023-03-03T00:02:40;45.43;;;17.43;;
71655;SDS011;59497;48.798;8.816;2023-03-03T00:05:05;36.30;;;16.48;;
71655;SDS011;59497;48.798;8.816;2023-03-03T00:07:30;39.47;;;16.83;;
71655;SDS011;59497;48.798;8.816;2023-03-03T00:09:56;37.43;;;16.10;;
71655;SDS011;59497;48.798;8.816;2023-03-03T00:12:25;31.17;;;14.60;;
71655;SDS011;59497;48.798;8.816;2023-03-03T00:14:51;32.72;;;15.25;;
71655;SDS011;59497;48.798;8.816;2023-03-03T00:17:20;34.80;;;15.57;;
71655;SDS011;59497;48.798;8.816;2023-03-03T00:19:46;35.63;;;15.27;;
71655;SDS011;59497;48.798;8.816;2023-03-03T00:22:13;32.53;;;15.52;;
71655;SDS011;59497;48.798;8.816;2023-03-03T00:24:39;32.63;;;15.63;;
71655;SDS011;59497;48.798;8.816;2023-03-03T00:27:15;34.73;;;15.57;;
71655;SDS011;59497;48.798;8.816;2023-03-03T00:29:44;30.42;;;14.35;;
71655;SDS011;59497;48.798;8.816;2023-03-03T00:34:47;32.45;;;15.23;;
71655;SDS011;59497;48.798;8.816;2023-03-03T00:37:29;35.03;;;15.67;;
71655;SDS011;59497;48.798;8.816;2023-03-03T00:40:00;31.60;;;14.52;;
71655;SDS011;59497;48.798;8.816;2023-03-03T00:42:26;37.60;;;15.98;;
71655;SDS011;59497;48.798;8.816;2023-03-03T00:44:56;35.73;;;15.33;;
71655;SDS011;59497;48.798;8.816;2023-03-03T00:47:29;35.25;;;15.57;;
71655;SDS011;59497;48.798;8.816;2023-03-03T00:52:35;34.88;;;15.63;;
71655;SDS011;59497;48.798;8.816;2023-03-03T00:55:01;37.50;;;16.38;;
71655;SDS011;59497;48.798;8.816;2023-03-03T00:57:28;36.83;;;16.17;;
71655;SDS011;59497;48.798;8.816;2023-03-03T00:59:53;37.67;;;15.80;;
71655;SDS011;59497;48.798;8.816;2023-03-03T01:02:18;33.87;;;15.90;;
71655;SDS011;59497;48.798;8.816;2023-03-03T01:04:45;36.10;;;15.83;;
71655;SDS011;59497;48.798;8.816;2023-03-03T01:07:13;36.35;;;16.02;;
71655;SDS011;59497;48.798;8.816;2023-03-03T01:09:38;35.53;;;15.40;;
71655;SDS011;59497;48.798;8.816;2023-03-03T01:12:03;36.57;;;15.20;;
71655;SDS011;59497;48.798;8.816;2023-03-03T01:14:28;33.97;;;14.37;;
71655;SDS011;59497;48.798;8.816;2023-03-03T01:16:54;30.07;;;15.37;;
71655;SDS011;59497;48.798;8.816;2023-03-03T01:19:19;33.03;;;14.47;;
71655;SDS011;59497;48.798;8.816;2023-03-03T01:21:44;34.40;;;14.63;;
71655;SDS011;59497;48.798;8.816;2023-03-03T01:24:09;33.60;;;13.90;;
71655;SDS011;59497;48.798;8.816;2023-03-03T01:26:35;30.07;;;14.60;;
71655;SDS011;59497;48.798;8.816;2023-03-03T01:29:00;38.90;;;15.63;;
71655;SDS011;59497;48.798;8.816;2023-03-03T01:31:25;33.50;;;15.02;;
71655;SDS011;59497;48.798;8.816;2023-03-03T01:33:50;38.47;;;15.00;;
71655;SDS011;59497;48.798;8.816;2023-03-03T01:36:21;35.67;;;14.70;;
71655;SDS011;59497;48.798;8.816;2023-03-03T01:38:46;37.83;;;15.23;;
71655;SDS011;59497;48.798;8.816;2023-03-03T01:41:11;36.07;;;15.17;;
71655;SDS011;59497;48.798;8.816;2023-03-03T01:43:41;35.33;;;15.17;;
71655;SDS011;59497;48.798;8.816;2023-03-03T01:48:35;40.85;;;15.75;;
71655;SDS011;59497;48.798;8.816;2023-03-03T01:51:08;36.70;;;16.53;;
71655;SDS011;59497;48.798;8.816;2023-03-03T01:56:05;36.30;;;15.15;;
71655;SDS011;59497;48.798;8.816;2023-03-03T01:58:33;38.00;;;16.75;;
71655;SDS011;59497;48.798;8.816;2023-03-03T02:01:01;39.20;;;16.37;;
71655;SDS011;59497;48.798;8.816;2023-03-03T02:03:27;34.95;;;15.98;;
71655;SDS011;59497;48.798;8.816;2023-03-03T02:05:54;36.22;;;16.33;;
71655;SDS011;59497;48.798;8.816;2023-03-03T02:08:21;37.15;;;14.60;;
71655;SDS011;59497;48.798;8.816;2023-03-03T02:10:50;33.65;;;14.15;;
71655;SDS011;59497;48.798;8.816;2023-03-03T02:13:15;35.53;;;14.47;;
71655;SDS011;59497;48.798;8.816;2023-03-03T02:15:40;36.43;;;13.47;;
71655;SDS011;59497;48.798;8.816;2023-03-03T02:18:06;38.83;;;14.03;;
71655;SDS011;59497;48.798;8.816;2023-03-03T02:23:28;37.47;;;16.23;;
71655;SDS011;59497;48.798;8.816;2023-03-03T02:28:29;32.70;;;14.38;;
71655;SDS011;59497;48.798;8.816;2023-03-03T02:30:55;30.17;;;12.48;;
71655;SDS011;59497;48.798;8.816;2023-03-03T02:33:20;33.97;;;14.15;;
71655;SDS011;59497;48.798;8.816;2023-03-03T02:35:45;62.43;;;22.17;;
71655;SDS011;59497;48.798;8.816;2023-03-03T02:40:43;37.47;;;14.93;;
71655;SDS011;59497;48.798;8.816;2023-03-03T02:43:11;29.40;;;12.40;;
71655;SDS011;59497;48.798;8.816;2023-03-03T02:45:42;31.63;;;11.82;;
71655;SDS011;59497;48.798;8.816;2023-03-03T02:48:07;26.75;;;11.75;;
71655;SDS011;59497;48.798;8.816;2023-03-03T02:50:32;27.58;;;10.80;;
71655;SDS011;59497;48.798;8.816;2023-03-03T02:52:57;30.40;;;11.37;;
71655;SDS011;59497;48.798;8.816;2023-03-03T02:55:22;28.20;;;12.30;;
71655;SDS011;59497;48.798;8.816;2023-03-03T02:57:48;29.13;;;11.57;;
71655;SDS011;59497;48.798;8.816;2023-03-03T03:00:13;27.00;;;12.33;;
71655;SDS011;59497;48.798;8.816;2023-03-03T03:02:38;35.37;;;13.60;;
71655;SDS011;59497;48.798;8.816;2023-03-03T03:05:03;33.20;;;12.87;;
71655;SDS011;59497;48.798;8.816;2023-03-03T03:07:28;31.50;;;13.27;;
71655;SDS011;59497;48.798;8.816;2023-03-03T03:09:54;29.03;;;12.37;;
71655;SDS011;59497;48.798;8.816;2023-03-03T03:12:20;31.30;;;12.95;;
71655;SDS011;59497;48.798;8.816;2023-03-03T03:14:45;31.53;;;13.87;;
71655;SDS011;59497;48.798;8.816;2023-03-03T03:17:10;31.70;;;13.50;;
71655;SDS011;59497;48.798;8.816;2023-03-03T03:19:36;33.65;;;13.20;;
71655;SDS011;59497;48.798;8.816;2023-03-03T03:22:02;31.67;;;12.33;;
71655;SDS011;59497;48.798;8.816;2023-03-03T03:24:27;29.37;;;11.53;;
71655;SDS011;59497;48.798;8.816;2023-03-03T03:26:52;32.65;;;12.38;;
71655;SDS011;59497;48.798;8.816;2023-03-03T03:29:17;28.70;;;11.70;;
71655;SDS011;59497;48.798;8.816;2023-03-03T03:31:42;31.00;;;12.33;;
71655;SDS011;59497;48.798;8.816;2023-03-03T03:34:07;32.67;;;12.67;;
71655;SDS011;59497;48.798;8.816;2023-03-03T03:36:32;30.70;;;12.60;;
71655;SDS011;59497;48.798;8.816;2023-03-03T03:38:58;31.63;;;12.47;;
71655;SDS011;59497;48.798;8.816;2023-03-03T03:41:23;31.60;;;12.93;;
71655;SDS011;59497;48.798;8.816;2023-03-03T03:43:48;34.60;;;13.63;;
71655;SDS011;59497;48.798;8.816;2023-03-03T03:46:13;31.63;;;12.57;;
71655;SDS011;59497;48.798;8.816;2023-03-03T03:48:38;31.73;;;12.77;;
71655;SDS011;59497;48.798;8.816;2023-03-03T03:51:04;27.20;;;12.07;;
71655;SDS011;59497;48.798;8.816;2023-03-03T03:53:29;31.03;;;12.50;;
71655;SDS011;59497;48.798;8.816;2023-03-03T03:55:54;33.30;;;12.63;;
71655;SDS011;59497;48.798;8.816;2023-03-03T03:58:20;28.37;;;12.43;;
71655;SDS011;59497;48.798;8.816;2023-03-03T04:00:45;31.87;;;12.83;;
71655;SDS011;59497;48.798;8.816;2023-03-03T04:03:10;35.60;;;13.75;;
71655;SDS011;59497;48.798;8.816;2023-03-03T04:05:36;34.10;;;14.10;;
71655;SDS011;59497;48.798;8.816;2023-03-03T04:08:01;32.10;;;13.40;;
71655;SDS011;59497;48.798;8.816;2023-03-03T04:10:26;33.80;;;13.93;;
71655;SDS011;59497;48.798;8.816;2023-03-03T04:12:51;30.40;;;13.65;;
71655;SDS011;59497;48.798;8.816;2023-03-03T04:15:17;30.27;;;13.17;;
71655;SDS011;59497;48.798;8.816;2023-03-03T04:17:42;33.53;;;14.03;;
71655;SDS011;59497;48.798;8.816;2023-03-03T04:20:08;35.70;;;13.63;;
71655;SDS011;59497;48.798;8.816;2023-03-03T04:22:34;32.25;;;13.25;;
71655;SDS011;59497;48.798;8.816;2023-03-03T04:25:00;34.57;;;13.10;;
71655;SDS011;59497;48.798;8.816;2023-03-03T04:27:29;32.90;;;13.88;;
71655;SDS011;59497;48.798;8.816;2023-03-03T04:29:54;33.93;;;13.47;;
71655;SDS011;59497;48.798;8.816;2023-03-03T04:32:19;29.50;;;13.73;;
71655;SDS011;59497;48.798;8.816;2023-03-03T04:34:44;34.00;;;13.83;;
71655;SDS011;59497;48.798;8.816;2023-03-03T04:37:09;34.37;;;13.73;;
71655;SDS011;59497;48.798;8.816;2023-03-03T04:39:34;30.30;;;12.70;;
71655;SDS011;59497;48.798;8.816;2023-03-03T04:42:00;32.10;;;14.30;;
71655;SDS011;59497;48.798;8.816;2023-03-03T04:44:25;37.43;;;14.63;;
71655;SDS011;59497;48.798;8.816;2023-03-03T04:46:50;36.37;;;15.13;;
71655;SDS011;59497;48.798;8.816;2023-03-03T04:49:15;34.47;;;14.60;;
71655;SDS011;59497;48.798;8.816;2023-03-03T04:51:40;36.87;;;14.70;;
71655;SDS011;59497;48.798;8.816;2023-03-03T04:54:05;33.30;;;14.00;;
71655;SDS011;59497;48.798;8.816;2023-03-03T04:56:31;35.13;;;14.57;;
71655;SDS011;59497;48.798;8.816;2023-03-03T04:58:56;36.00;;;16.10;;
71655;SDS011;59497;48.798;8.816;2023-03-03T05:01:21;34.50;;;13.85;;
71655;SDS011;59497;48.798;8.816;2023-03-03T05:03:46;36.37;;;15.17;;
71655;SDS011;59497;48.798;8.816;2023-03-03T05:06:12;33.50;;;14.23;;
71655;SDS011;59497;48.798;8.816;2023-03-03T05:08:37;33.80;;;14.00;;
71655;SDS011;59497;48.798;8.816;2023-03-03T05:11:03;34.87;;;14.37;;
71655;SDS011;59497;48.798;8.816;2023-03-03T05:13:28;34.10;;;15.23;;
71655;SDS011;59497;48.798;8.816;2023-03-03T05:15:53;33.70;;;14.47;;
71655;SDS011;59497;48.798;8.816;2023-03-03T05:18:22;30.25;;;13.88;;
71655;SDS011;59497;48.798;8.816;2023-03-03T05:20:48;34.23;;;15.03;;
71655;SDS011;59497;48.798;8.816;2023-03-03T05:23:13;31.33;;;14.23;;
71655;SDS011;59497;48.798;8.816;2023-03-03T05:25:39;35.73;;;16.00;;
71655;SDS011;59497;48.798;8.816;2023-03-03T05:28:04;35.97;;;14.88;;
71655;SDS011;59497;48.798;8.816;2023-03-03T05:30:29;36.80;;;15.25;;
71655;SDS011;59497;48.798;8.816;2023-03-03T05:32:55;34.93;;;15.17;;
71655;SDS011;59497;48.798;8.816;2023-03-03T05:35:20;31.13;;;14.30;;
71655;SDS011;59497;48.798;8.816;2023-03-03T05:37:45;32.73;;;13.90;;
71655;SDS011;59497;48.798;8.816;2023-03-03T05:40:12;31.73;;;14.95;;
71655;SDS011;59497;48.798;8.816;2023-03-03T05:42:37;32.43;;;14.43;;
71655;SDS011;59497;48.798;8.816;2023-03-03T05:45:03;37.23;;;15.13;;
71655;SDS011;59497;48.798;8.816;2023-03-03T05:47:28;46.15;;;19.77;;
71655;SDS011;59497;48.798;8.816;2023-03-03T05:49:53;43.57;;;17.47;;
71655;SDS011;59497;48.798;8.816;2023-03-03T05:52:18;34.83;;;15.53;;
71655;SDS011;59497;48.798;8.816;2023-03-03T05:54:43;30.87;;;15.20;;
71655;SDS011;59497;48.798;8.816;2023-03-03T05:57:09;30.23;;;13.37;;
71655;SDS011;59497;48.798;8.816;2023-03-03T05:59:34;34.13;;;15.63;;
71655;SDS011;59497;48.798;8.816;2023-03-03T06:01:59;34.13;;;14.87;;
71655;SDS011;59497;48.798;8.816;2023-03-03T06:04:24;33.90;;;15.60;;
71655;SDS011;59497;48.798;8.816;2023-03-03T06:06:50;29.47;;;13.60;;
71655;SDS011;59497;48.798;8.816;2023-03-03T06:09:15;37.30;;;15.60;;
71655;SDS011;59497;48.798;8.816;2023-03-03T06:11:43;32.28;;;14.70;;
71655;SDS011;59497;48.798;8.816;2023-03-03T06:14:08;31.27;;;14.23;;
71655;SDS011;59497;48.798;8.816;2023-03-03T06:16:33;35.60;;;16.60;;
71655;SDS011;59497;48.798;8.816;2023-03-03T06:18:58;37.60;;;16.73;;
71655;SDS011;59497;48.798;8.816;2023-03-03T06:21:23;36.07;;;16.33;;
71655;SDS011;59497;48.798;8.816;2023-03-03T06:23:49;39.20;;;17.37;;
71655;SDS011;59497;48.798;8.816;2023-03-03T06:26:14;36.13;;;16.17;;
71655;SDS011;59497;48.798;8.816;2023-03-03T06:28:39;35.17;;;16.73;;
71655;SDS011;59497;48.798;8.816;2023-03-03T06:31:04;40.37;;;17.03;;
71655;SDS011;59497;48.798;8.816;2023-03-03T06:33:29;40.23;;;17.83;;
71655;SDS011;59497;48.798;8.816;2023-03-03T06:35:54;40.13;;;17.50;;
71655;SDS011;59497;48.798;8.816;2023-03-03T06:38:20;37.13;;;16.30;;
71655;SDS011;59497;48.798;8.816;2023-03-03T06:40:45;35.90;;;16.43;;
71655;SDS011;59497;48.798;8.816;2023-03-03T06:43:10;39.07;;;17.23;;
71655;SDS011;59497;48.798;8.816;2023-03-03T06:45:39;37.40;;;16.00;;
71655;SDS011;59497;48.798;8.816;2023-03-03T06:48:04;35.97;;;16.70;;
71655;SDS011;59497;48.798;8.816;2023-03-03T06:50:29;34.47;;;17.13;;
71655;SDS011;59497;48.798;8.816;2023-03-03T06:53:05;40.40;;;18.90;;
71655;SDS011;59497;48.798;8.816;2023-03-03T06:55:32;36.35;;;17.35;;
71655;SDS011;59497;48.798;8.816;2023-03-03T06:57:58;36.70;;;16.33;;
71655;SDS011;59497;48.798;8.816;2023-03-03T07:00:23;33.45;;;16.95;;
71655;SDS011;59497;48.798;8.816;2023-03-03T07:03:10;37.65;;;16.83;;
71655;SDS011;59497;48.798;8.816;2023-03-03T07:05:36;36.30;;;16.60;;
71655;SDS011;59497;48.798;8.816;2023-03-03T07:08:02;37.63;;;16.37;;
71655;SDS011;59497;48.798;8.816;2023-03-03T07:10:28;34.93;;;15.77;;
71655;SDS011;59497;48.798;8.816;2023-03-03T07:12:55;37.80;;;16.50;;
71655;SDS011;59497;48.798;8.816;2023-03-03T07:15:23;36.70;;;15.32;;
71655;SDS011;59497;48.798;8.816;2023-03-03T07:17:49;44.00;;;20.40;;
71655;SDS011;59497;48.798;8.816;2023-03-03T07:20:18;37.85;;;18.65;;
71655;SDS011;59497;48.798;8.816;2023-03-03T07:22:44;38.83;;;17.90;;
71655;SDS011;59497;48.798;8.816;2023-03-03T07:25:18;37.58;;;16.48;;
71655;SDS011;59497;48.798;8.816;2023-03-03T07:27:44;36.87;;;15.80;;
71655;SDS011;59497;48.798;8.816;2023-03-03T07:32:46;38.20;;;17.20;;
71655;SDS011;59497;48.798;8.816;2023-03-03T07:35:25;38.85;;;17.50;;
71655;SDS011;59497;48.798;8.816;2023-03-03T07:37:52;35.78;;;15.88;;
71655;SDS011;59497;48.798;8.816;2023-03-03T07:42:58;39.47;;;18.45;;
71655;SDS011;59497;48.798;8.816;2023-03-03T07:45:27;39.03;;;17.30;;
71655;SDS011;59497;48.798;8.816;2023-03-03T07:48:29;36.15;;;16.48;;
71655;SDS011;59497;48.798;8.816;2023-03-03T07:50:44;42.03;;;17.30;;
71655;SDS011;59497;48.798;8.816;2023-03-03T07:53:11;34.10;;;16.43;;
71655;SDS011;59497;48.798;8.816;2023-03-03T07:55:38;38.88;;;18.05;;
71655;SDS011;59497;48.798;8.816;2023-03-03T08:03:09;40.60;;;17.15;;
71655;SDS011;59497;48.798;8.816;2023-03-03T08:05:37;37.30;;;15.77;;
71655;SDS011;59497;48.798;8.816;2023-03-03T08:10:34;48.10;;;18.73;;
71655;SDS011;59497;48.798;8.816;2023-03-03T08:12:59;45.15;;;17.52;;
71655;SDS011;59497;48.798;8.816;2023-03-03T08:15:27;34.53;;;16.67;;
71655;SDS011;59497;48.798;8.816;2023-03-03T08:17:55;38.47;;;16.07;;
71655;SDS011;59497;48.798;8.816;2023-03-03T08:23:04;50.80;;;17.30;;
71655;SDS011;59497;48.798;8.816;2023-03-03T08:25:29;36.80;;;15.93;;
71655;SDS011;59497;48.798;8.816;2023-03-03T08:27:55;42.13;;;21.07;;
71655;SDS011;59497;48.798;8.816;2023-03-03T08:30:20;42.47;;;19.33;;
71655;SDS011;59497;48.798;8.816;2023-03-03T08:32:45;81.30;;;21.83;;
71655;SDS011;59497;48.798;8.816;2023-03-03T08:35:10;42.10;;;18.63;;
71655;SDS011;59497;48.798;8.816;2023-03-03T08:37:35;37.60;;;16.80;;
71655;SDS011;59497;48.798;8.816;2023-03-03T08:40:00;36.83;;;17.13;;
71655;SDS011;59497;48.798;8.816;2023-03-03T08:42:26;36.33;;;16.97;;
71655;SDS011;59497;48.798;8.816;2023-03-03T08:44:53;37.27;;;17.10;;
71655;SDS011;59497;48.798;8.816;2023-03-03T08:47:19;43.28;;;17.52;;
71655;SDS011;59497;48.798;8.816;2023-03-03T08:49:44;40.08;;;17.98;;
71655;SDS011;59497;48.798;8.816;2023-03-03T08:52:09;38.40;;;16.27;;
71655;SDS011;59497;48.798;8.816;2023-03-03T08:54:34;38.97;;;17.35;;
71655;SDS011;59497;48.798;8.816;2023-03-03T08:56:59;37.43;;;16.23;;
71655;SDS011;59497;48.798;8.816;2023-03-03T08:59:24;39.53;;;17.07;;
71655;SDS011;59497;48.798;8.816;2023-03-03T09:01:50;41.27;;;15.47;;
71655;SDS011;59497;48.798;8.816;2023-03-03T09:04:15;54.67;;;24.70;;
71655;SDS011;59497;48.798;8.816;2023-03-03T09:06:40;38.23;;;16.57;;
71655;SDS011;59497;48.798;8.816;2023-03-03T09:09:05;36.87;;;15.97;;
71655;SDS011;59497;48.798;8.816;2023-03-03T09:11:30;37.90;;;17.37;;
71655;SDS011;59497;48.798;8.816;2023-03-03T09:14:08;38.33;;;16.77;;
71655;SDS011;59497;48.798;8.816;2023-03-03T09:16:36;39.67;;;16.05;;
71655;SDS011;59497;48.798;8.816;2023-03-03T09:19:14;35.33;;;15.83;;
71655;SDS011;59497;48.798;8.816;2023-03-03T09:21:39;34.50;;;15.27;;
71655;SDS011;59497;48.798;8.816;2023-03-03T09:24:09;32.33;;;14.03;;
71655;SDS011;59497;48.798;8.816;2023-03-03T09:26:46;35.38;;;15.57;;
71655;SDS011;59497;48.798;8.816;2023-03-03T09:29:28;36.42;;;17.27;;
71655;SDS011;59497;48.798;8.816;2023-03-03T09:31:54;35.88;;;15.55;;
71655;SDS011;59497;48.798;8.816;2023-03-03T09:36:54;31.95;;;15.52;;
71655;SDS011;59497;48.798;8.816;2023-03-03T09:44:31;34.08;;;15.07;;
71655;SDS011;59497;48.798;8.816;2023-03-03T09:49:30;35.92;;;14.75;;
71655;SDS011;59497;48.798;8.816;2023-03-03T09:57:15;33.83;;;15.00;;
71655;SDS011;59497;48.798;8.816;2023-03-03T10:02:11;35.60;;;17.63;;
71655;SDS011;59497;48.798;8.816;2023-03-03T10:15:09;36.25;;;16.05;;
71655;SDS011;59497;48.798;8.816;2023-03-03T10:17:41;35.72;;;15.65;;
71655;SDS011;59497;48.798;8.816;2023-03-03T10:22:53;32.33;;;15.43;;
71655;SDS011;59497;48.798;8.816;2023-03-03T10:28:01;29.77;;;15.40;;
71655;SDS011;59497;48.798;8.816;2023-03-03T10:33:19;37.17;;;15.85;;
71655;SDS011;59497;48.798;8.816;2023-03-03T10:41:12;30.90;;;15.30;;
71655;SDS011;59497;48.798;8.816;2023-03-03T10:46:12;31.98;;;15.00;;
71655;SDS011;59497;48.798;8.816;2023-03-03T10:56:32;29.95;;;15.65;;
71655;SDS011;59497;48.798;8.816;2023-03-03T11:01:58;37.53;;;14.88;;
71655;SDS011;59497;48.798;8.816;2023-03-03T11:07:14;34.80;;;14.57;;
71655;SDS011;59497;48.798;8.816;2023-03-03T11:25:26;28.97;;;13.97;;
71655;SDS011;59497;48.798;8.816;2023-03-03T11:33:09;33.08;;;14.45;;
71655;SDS011;59497;48.798;8.816;2023-03-03T11:35:37;31.13;;;14.98;;
71655;SDS011;59497;48.798;8.816;2023-03-03T11:41:22;30.02;;;14.07;;
71655;SDS011;59497;48.798;8.816;2023-03-03T11:46:08;30.15;;;14.38;;
71655;SDS011;59497;48.798;8.816;2023-03-03T11:48:37;32.22;;;15.38;;
71655;SDS011;59497;48.798;8.816;2023-03-03T11:51:46;27.05;;;14.43;;
71655;SDS011;59497;48.798;8.816;2023-03-03T11:53:59;31.43;;;15.40;;
71655;SDS011;59497;48.798;8.816;2023-03-03T11:56:26;28.77;;;15.00;;
71655;SDS011;59497;48.798;8.816;2023-03-03T12:01:45;32.17;;;14.48;;
71655;SDS011;59497;48.798;8.816;2023-03-03T12:04:14;31.58;;;14.02;;
71655;SDS011;59497;48.798;8.816;2023-03-03T12:06:52;33.83;;;15.67;;
71655;SDS011;59497;48.798;8.816;2023-03-03T12:09:26;30.83;;;15.48;;
71655;SDS011;59497;48.798;8.816;2023-03-03T12:11:54;29.90;;;14.82;;
71655;SDS011;59497;48.798;8.816;2023-03-03T12:14:34;29.75;;;13.80;;
71655;SDS011;59497;48.798;8.816;2023-03-03T12:19:38;30.10;;;14.27;;
71655;SDS011;59497;48.798;8.816;2023-03-03T12:25:06;31.45;;;14.90;;
71655;SDS011;59497;48.798;8.816;2023-03-03T12:27:44;28.88;;;13.35;;
71655;SDS011;59497;48.798;8.816;2023-03-03T12:30:16;30.80;;;15.10;;
71655;SDS011;59497;48.798;8.816;2023-03-03T12:40:11;29.73;;;14.30;;
71655;SDS011;59497;48.798;8.816;2023-03-03T12:42:45;31.92;;;15.15;;
71655;SDS011;59497;48.798;8.816;2023-03-03T12:47:50;28.55;;;14.07;;
71655;SDS011;59497;48.798;8.816;2023-03-03T12:52:52;28.70;;;14.07;;
71655;SDS011;59497;48.798;8.816;2023-03-03T13:00:55;30.02;;;13.68;;
71655;SDS011;59497;48.798;8.816;2023-03-03T13:03:21;31.35;;;14.52;;
71655;SDS011;59497;48.798;8.816;2023-03-03T13:05:51;30.67;;;14.57;;
71655;SDS011;59497;48.798;8.816;2023-03-03T13:13:33;27.10;;;13.43;;
71655;SDS011;59497;48.798;8.816;2023-03-03T13:16:01;25.90;;;14.02;;
71655;SDS011;59497;48.798;8.816;2023-03-03T13:18:34;29.20;;;14.10;;
71655;SDS011;59497;48.798;8.816;2023-03-03T13:26:16;31.77;;;15.23;;
71655;SDS011;59497;48.798;8.816;2023-03-03T13:29:04;28.17;;;14.55;;
71655;SDS011;59497;48.798;8.816;2023-03-03T13:32:02;30.40;;;14.35;;
71655;SDS011;59497;48.798;8.816;2023-03-03T13:39:37;27.90;;;14.05;;
71655;SDS011;59497;48.798;8.816;2023-03-03T13:42:05;30.02;;;15.07;;
71655;SDS011;59497;48.798;8.816;2023-03-03T13:44:37;28.30;;;14.57;;
71655;SDS011;59497;48.798;8.816;2023-03-03T13:47:15;30.02;;;14.50;;
71655;SDS011;59497;48.798;8.816;2023-03-03T13:52:27;30.65;;;14.95;;
71655;SDS011;59497;48.798;8.816;2023-03-03T14:00:15;29.10;;;14.85;;
71655;SDS011;59497;48.798;8.816;2023-03-03T14:02:55;31.17;;;16.70;;
71655;SDS011;59497;48.798;8.816;2023-03-03T14:05:25;30.90;;;14.52;;
71655;SDS011;59497;48.798;8.816;2023-03-03T14:07:57;30.48;;;15.02;;
71655;SDS011;59497;48.798;8.816;2023-03-03T14:10:28;31.75;;;14.77;;
71655;SDS011;59497;48.798;8.816;2023-03-03T14:18:16;30.03;;;13.97;;
71655;SDS011;59497;48.798;8.816;2023-03-03T14:20:46;29.75;;;13.88;;
71655;SDS011;59497;48.798;8.816;2023-03-03T14:23:33;28.65;;;14.63;;
71655;SDS011;59497;48.798;8.816;2023-03-03T14:28:28;30.60;;;14.07;;
71655;SDS011;59497;48.798;8.816;2023-03-03T14:30:55;28.83;;;14.00;;
71655;SDS011;59497;48.798;8.816;2023-03-03T14:33:21;46.10;;;21.90;;
71655;SDS011;59497;48.798;8.816;2023-03-03T14:35:59;27.98;;;14.25;;
71655;SDS011;59497;48.798;8.816;2023-03-03T14:41:16;31.80;;;15.68;;
71655;SDS011;59497;48.798;8.816;2023-03-03T14:43:43;32.00;;;14.95;;
71655;SDS011;59497;48.798;8.816;2023-03-03T14:48:58;33.50;;;15.68;;
71655;SDS011;59497;48.798;8.816;2023-03-03T14:51:25;32.10;;;15.50;;
71655;SDS011;59497;48.798;8.816;2023-03-03T14:53:53;31.73;;;16.42;;
71655;SDS011;59497;48.798;8.816;2023-03-03T14:59:31;35.72;;;15.80;;
71655;SDS011;59497;48.798;8.816;2023-03-03T15:01:38;28.75;;;14.02;;
71655;SDS011;59497;48.798;8.816;2023-03-03T15:04:06;33.80;;;14.80;;
71655;SDS011;59497;48.798;8.816;2023-03-03T15:06:41;29.65;;;14.70;;
71655;SDS011;59497;48.798;8.816;2023-03-03T15:09:49;29.88;;;15.02;;
71655;SDS011;59497;48.798;8.816;2023-03-03T15:11:58;32.83;;;14.80;;
71655;SDS011;59497;48.798;8.816;2023-03-03T15:14:28;31.83;;;15.60;;
71655;SDS011;59497;48.798;8.816;2023-03-03T15:16:55;41.60;;;16.25;;
71655;SDS011;59497;48.798;8.816;2023-03-03T15:19:35;32.08;;;15.00;;
71655;SDS011;59497;48.798;8.816;2023-03-03T15:24:51;32.08;;;15.48;;
71655;SDS011;59497;48.798;8.816;2023-03-03T15:27:20;34.83;;;15.57;;
71655;SDS011;59497;48.798;8.816;2023-03-03T15:32:43;33.28;;;15.02;;
71655;SDS011;59497;48.798;8.816;2023-03-03T15:35:32;34.80;;;15.23;;
71655;SDS011;59497;48.798;8.816;2023-03-03T15:38:02;31.98;;;14.55;;
71655;SDS011;59497;48.798;8.816;2023-03-03T15:40:36;33.70;;;15.65;;
71655;SDS011;59497;48.798;8.816;2023-03-03T15:46:03;34.92;;;15.52;;
71655;SDS011;59497;48.798;8.816;2023-03-03T15:48:32;30.63;;;14.60;;
71655;SDS011;59497;48.798;8.816;2023-03-03T15:54:03;31.05;;;15.43;;
71655;SDS011;59497;48.798;8.816;2023-03-03T15:59:15;31.58;;;15.45;;
71655;SDS011;59497;48.798;8.816;2023-03-03T16:01:50;32.23;;;15.43;;
71655;SDS011;59497;48.798;8.816;2023-03-03T16:04:17;33.95;;;14.60;;
71655;SDS011;59497;48.798;8.816;2023-03-03T16:06:53;31.75;;;14.93;;
71655;SDS011;59497;48.798;8.816;2023-03-03T16:09:25;34.20;;;15.57;;
71655;SDS011;59497;48.798;8.816;2023-03-03T16:11:57;30.85;;;15.27;;
71655;SDS011;59497;48.798;8.816;2023-03-03T16:14:36;32.00;;;14.93;;
71655;SDS011;59497;48.798;8.816;2023-03-03T16:19:50;34.53;;;15.75;;
71655;SDS011;59497;48.798;8.816;2023-03-03T16:22:28;30.33;;;14.35;;
71655;SDS011;59497;48.798;8.816;2023-03-03T16:27:45;32.53;;;14.73;;
71655;SDS011;59497;48.798;8.816;2023-03-03T16:30:22;31.63;;;15.40;;
71655;SDS011;59497;48.798;8.816;2023-03-03T16:32:55;34.85;;;15.68;;
71655;SDS011;59497;48.798;8.816;2023-03-03T16:35:27;34.35;;;15.50;;
71655;SDS011;59497;48.798;8.816;2023-03-03T16:40:19;33.43;;;16.13;;
71655;SDS011;59497;48.798;8.816;2023-03-03T16:42:46;33.25;;;15.80;;
71655;SDS011;59497;48.798;8.816;2023-03-03T16:45:20;33.43;;;15.03;;
71655;SDS011;59497;48.798;8.816;2023-03-03T16:50:17;31.75;;;15.32;;
71655;SDS011;59497;48.798;8.816;2023-03-03T16:55:36;85.00;;;29.75;;
71655;SDS011;59497;48.798;8.816;2023-03-03T16:58:17;64.30;;;28.45;;
71655;SDS011;59497;48.798;8.816;2023-03-03T17:08:20;32.33;;;15.38;;
71655;SDS011;59497;48.798;8.816;2023-03-03T17:13:32;37.27;;;16.77;;
71655;SDS011;59497;48.798;8.816;2023-03-03T17:16:07;34.97;;;15.43;;
71655;SDS011;59497;48.798;8.816;2023-03-03T17:18:42;35.17;;;16.52;;
71655;SDS011;59497;48.798;8.816;2023-03-03T17:26:30;36.70;;;18.40;;
71655;SDS011;59497;48.798;8.816;2023-03-03T17:29:12;43.80;;;20.48;;
71655;SDS011;59497;48.798;8.816;2023-03-03T17:34:46;38.25;;;17.88;;
71655;SDS011;59497;48.798;8.816;2023-03-03T17:40:02;33.33;;;16.10;;
71655;SDS011;59497;48.798;8.816;2023-03-03T17:45:04;35.70;;;15.80;;
71655;SDS011;59497;48.798;8.816;2023-03-03T17:50:17;38.20;;;18.85;;
71655;SDS011;59497;48.798;8.816;2023-03-03T17:55:21;33.60;;;17.30;;
71655;SDS011;59497;48.798;8.816;2023-03-03T18:06:10;39.20;;;17.98;;
71655;SDS011;59497;48.798;8.816;2023-03-03T18:16:22;41.72;;;18.65;;
71655;SDS011;59497;48.798;8.816;2023-03-03T18:19:36;50.40;;;20.58;;
71655;SDS011;59497;48.798;8.816;2023-03-03T18:21:36;40.53;;;19.42;;
71655;SDS011;59497;48.798;8.816;2023-03-03T18:24:29;37.25;;;17.60;;
71655;SDS011;59497;48.798;8.816;2023-03-03T18:26:52;39.38;;;17.10;;
71655;SDS011;59497;48.798;8.816;2023-03-03T18:29:25;39.97;;;17.07;;
71655;SDS011;59497;48.798;8.816;2023-03-03T18:39:16;42.05;;;19.05;;
71655;SDS011;59497;48.798;8.816;2023-03-03T18:42:03;39.90;;;17.67;;
71655;SDS011;59497;48.798;8.816;2023-03-03T18:44:29;38.78;;;17.80;;
71655;SDS011;59497;48.798;8.816;2023-03-03T18:46:55;37.60;;;17.80;;
71655;SDS011;59497;48.798;8.816;2023-03-03T18:52:13;46.03;;;20.50;;
71655;SDS011;59497;48.798;8.816;2023-03-03T18:54:40;50.13;;;22.20;;